Terminal Aerodrome Forecast
Issued by NWS

Home | Current Version | Previous Version | Text Only | Print | Product List | Glossary On
Versions: 1 2 3 4 5 6 7 8 9 10 11 12 13
074
FTUS43 KDLH 172338
TAFHYR
TAF
KHYR 172338Z 1800/1824 02011KT P6SM BKN035
     FM181000 VRB04KT P6SM BKN020
     FM181100 04010KT P6SM BKN015
     FM182200 03009KT P6SM BKN080=

USA.gov is the U.S. government's official web portal to all federal, state and local government web resources and services.